Terminal Aerodrome Forecast
Issued by NWS Tulsa, OK

Home | Current Version | Previous Version | Text Only | Print | Product List | Glossary On
Versions: 1 2 3 4 5 6 7 8 9 10 11 12 13 14 15 16 17 18 19 20 21 22
000
FTUS44 KTSA 190100 AAA
TAFFSM
TAF AMD
KFSM 190148Z 1902/1924 09004KT P6SM SKC
     FM190800 06004KT 4SM BR BKN015
      TEMPO 1908/1912 1SM BR BKN007
     FM191500 07004KT P6SM VCTS BKN050CB
      TEMPO 1920/1924 2SM -TSRA BR BKN025CB=

USA.gov is the U.S. government's official web portal to all federal, state and local government web resources and services.